Portada
METAR-TAF:

METAR-TAF

Aeroports :

Lawrence Municipal Airport

Lawrence, Massachusetts, Estats Units d'Amèrica

latitud: 42-42-47N, longitud: 071-07-33W, altitud: 45 m

Observació

L'informe es va fer fa 46 minuts, a les 23:54 UTC
Vent 3 kt amb direcció variable
Temperatura 23°C
Humitat 73%
Pressió 1022 hPa
Visibilitat: 16.1 km
Escasses núvols a una alçada de 7500 ft
Cel cobert a una alçada de 12000 ft

METAR: KLWM 072354Z VRB03KT 10SM FEW075 OVC120 23/18 A3018 RMK AO2 SLP218 T02280178 10250 20228 53001

Hora: 20:40 (00:40 UTC)


TAF: manca

Observacions i pronòstics meteorològics de més de 4000 aeroports (METAR i TAF).

Les estacions disponibles són els punts grocs i vermells al mapa.

Posi el ratolí al punt desitjat per veure el nom de l'estació.

Feu clic per veure les observacions i els pronòstics meteorològics.

Per canviar el mapa: feu clic els botons verds amb una creu de color negre per apropar; al botó verd amb un guió per allunyar la imatge; o en les fletxes verdes per a mapes adjacents.


METAR-TAF: